EA1IPU-1
43.26.21N 005.46.62W
IN73CK aprs.fi
zuletzt gehoert:
2022-08-13T18:31:03Z
zuerst gehoert:
2022-06-05T12:31:42Z

APRS Siero [IN73CK], 2 Stunde(n), EA1IPU-1 [21:00:39, 0s].
EA1IPU 43.26.21N 005.46.62WIN73CK 0.376km 298°WNW18:31:03ZMMDVM MMDVM HS Hat 439.8000/439.8000 CC1(3EA1IPU-1)
EA1ABW 43.24.77N 005.47.77WIN73CJ 3.132km 217°SW19:00:37ZMMDVM MMDVM HS Hat 439.8250/439.8250 CC1(3EA1ABW-2)
MMDVM MMDVM HS Hat 439.8250/439.8250 CC1(2EA1ABW-1)
LEMR 43.25.83N 005.49.60WIN73CK 4.391km 263°W19:00:03ZAerodromo de la Morgal (123.500MHz): LEAS 131800Z VRB02KT 9999 FEW010 SCT050 19/16 Q1013 TEMPO SHRA SCT035CB=
LEGM 43.26.15N 005.49.84WIN73CK 4.667km 271°W19:00:03ZHelipuerto de La Morgal (123.500MHz): LEAS 131800Z VRB02KT 9999 FEW010 SCT050 19/16 Q1013 TEMPO SHRA SCT035CB=
LEHU 43.22.63N 005.49.57WIN73CJ 7.785km 214°SW19:00:03ZHelipuerto del HUCA: LEAS 131800Z VRB02KT 9999 FEW010 SCT050 19/16 Q1013 TEMPO SHRA SCT035CB=
ED1ZAE 43.27.99N 005.40.54WIN73DL 8.559km 66°ENE18:56:25Z400 M. PICO SAN MARTIN (GIJON) 13.4V,22.3C(3ED1ZAE-3)
ED1ZAS 43.27.52N 005.40.17WIN73DL 8.727km 73°ENE18:32:28ZRD985 438.2250/430.6250 CC1
EA1FOI 43.21.64N 005.49.38WIN73CI 9.230km 206°SSW18:11:20ZDavid(3EA1FOI-12)
ED1ZAU 43.23.04N 005.52.75WIN73BJ 10.327km 236°SW18:32:27ZRD625 438.5000/430.9000 CC1
EB1JAJ 43.21.72N 005.51.82WIN73BI 10.975km 222°SW18:32:10ZMMDVM MMDVM HS Dual Hat 438.0250/431.0250 CC1(3EB1JAJ-2)
EA1L 43.20.37N 005.51.13WIN73BI 12.426km 211°SSW19:00:05Zea1l@ure.es V=13.4V
Wind 043°/005kn, Böen bis 009kn, Temp 19.44c, Regen 0.0mm, letzte 24h 0.0mm, seit 0h 0.0mm, Baro 1011.0h, Hum: 90%(2EA1L-13)
EB1TK 43.32.22N 005.42.32WIN73DM 12.554km 26°NNE19:00:15ZWind 278°/002kn, Böen bis 004kn, Temp 18.89c, Regen 0.0mm, letzte 24h 1.8mm, seit 0h 1.8mm, Baro 1015.7h, Hum: 88%(3EB1TK-13)
EA1FFA 43.31.53N 005.40.64WIN73DM 12.650km 37°NE18:31:47ZMMDVM MMDVM HS Hat 438.8000/438.8000 CC1(3EA1FFA-1)
EA1DZR 43.31.48N 005.40.00WIN73EM 13.108km 41°NE18:32:20ZMMDVM DVMega 431.1000/431.1000 CC1(3EA1DZR-1)
MMDVM MMDVM HS Hat 432.1000/432.1000 CC2(2EA1DZR-2)
MMDVM DV ADER 434.3500/434.3500 CC1(2EA1DZR-4)
EA1IEJ 43.31.81N 005.40.17WIN73DM 13.448km 38°NE18:32:08ZMMDVM DMO 222.3400/222.3400 CC1(3EA1IEJ-11)
MMDVM MMDVM HS Hat 438.8500/438.8500 CC6(2EA1IEJ-1)
EA1HWX 43.19.28N 005.50.98WIN73BH 14.122km 206°SSW18:32:08ZDMO - UHF 439.7250/431.0000 CC11(3EA1HWX-2)
MMDVM DMO 222.3400/222.3400 CC1(2EA1HWX-10)
LEEL 43.32.98N 005.41.71WIN73DN 14.156km 26°NNE19:00:03ZHelipuerto de El Musel: LEAS 131800Z VRB02KT 9999 FEW010 SCT050 19/16 Q1013 TEMPO SHRA SCT035CB=
ED1ZAY 43.29.47N 005.56.54WIN73AL 15.033km 294°WNW18:32:26ZRD625 438.3000/430.7000 CC1
EB1GEM 43.30.00N 005.36.07WIN73EM 15.612km 62°ENE18:55:38ZWX3in1Plus2.0 U=13.3V,T=??.?C/??.?F(3EB1GEM-3)
EA1AHA 43.32.72N 005.54.38WIN73BN 16.298km 319°NW18:32:02ZWind 000°/000kn, Böen bis 001kn, Temp 20.00c, Regen 0.0mm, letzte 24h 1.0mm, seit 0h 1.0mm, Baro 1014.5h, Hum: 75%(3EA1AHA-13)
EC1AIJ 43.19.77N 005.33.49WIN73FH 20.968km 124°SE19:00:32ZMMDVM MMDVM HS Hat 432.9800/432.9800 CC1
EA1HJA 43.28.10N 005.30.45WIN73FL 21.728km 80°E18:55:32Z IN73FL WX3IN1+ 2.0 - V=14.0V,TX TEMP=47.5C
EA1HJA@URE.ES(2EA1HJA-2)
EA1IMW 43.14.36N 005.46.93WIN73CF 21.815km 182°S18:32:04ZGRUPO RADIO GALENA (GRG) 430.4500/430.4500 CC1(3EA1IMW-1)
EA1AQK 43.16.49N 005.35.99WIN73EG 22.659km 142°SE19:00:29ZMMDVM MMDVM HS Hat 439.8500/439.8500 CC1(3EA1AQK-1)
EB1DGC 43.12.60N 005.45.59WIN73CF 25.085km 178°S19:00:19ZMMDVM MMDVM HS Hat 433.4500/433.4500 CC1
EA1JBL 43.12.28N 005.47.42WIN73CE 25.677km 183°S18:31:57ZMMDVM DVMega 435.3000/435.3000 CC1
EA1HWA 43.12.00N 005.47.40WIN73CE 26.212km 183°S19:00:31ZMMDVM MMDVM HS Hat 433.4500/433.4500 CC1
EA1JAY 43.29.33N 005.26.78WIN73GL 27.014km 77°ENE19:00:05Z434.525MHz Nodo TETRA DMO(3EA1JAY-4)
EA1JAY(2EA1JAY-2)
EA1FHR 43.28.72N 005.26.41WIN73GL 27.263km 80°E19:00:32ZMMDVM MMDVM HS Hat 439.1500/439.1500 CC1
EA1HWD 43.28.96N 005.26.30WIN73GL 27.503km 79°E18:31:06ZMMDVM MMDVM HS Hat 434.2500/434.2500 CC1
EA1RCG 43.09.45N 005.49.78WIN73CD 31.224km 189°S18:30:59ZGRUPO RADIO GALENA (GRG) 430.4500/430.4500 CC1(3EA1RCG-3)
EB1WB 43.33.88N 006.08.88WIN63WN 33.503km 296°WNW18:07:23Z]=(3EB1WB-9)
ED1ZAD 43.07.90N 005.38.52WIN73ED 35.372km 163°SSE18:46:36ZED1ZAD-3 APRS Digi/Igate(3ED1ZAD-3)
EA1JBU 43.30.80N 005.16.20WIN73IM 41.472km 78°ENE19:00:04ZEA1JBU(3EA1JBU-2)
EC1KV 43.34.01N 006.16.01WIN63UN 42.429km 290°WNW18:45:42Z VOLT.=13.7 V - TEMP.=??.? C(3EC1KV-1)

aprs.pl 5.0.011w DL3EL © 2006-2021 [4355025]